createdAt,value
2018-11-06T00:02:18.249Z,104.20
2018-11-06T00:04:57.820Z,148.73
2018-11-06T00:07:32.017Z,183.57
2018-11-06T00:10:06.322Z,124.43
2018-11-06T00:12:40.945Z,97.23
2018-11-06T00:15:15.211Z,104.00
2018-11-06T00:17:49.512Z,82.60
2018-11-06T00:20:23.757Z,82.80
2018-11-06T00:22:58.185Z,57.83
2018-11-06T00:25:32.581Z,56.20
2018-11-06T00:28:06.854Z,25.87
2018-11-06T00:30:41.201Z,24.53
2018-11-06T00:33:15.633Z,19.43
2018-11-06T00:35:49.778Z,22.67
2018-11-06T00:38:24.153Z,16.50
2018-11-06T00:40:58.490Z,16.13
2018-11-06T00:43:32.765Z,14.70
2018-11-06T00:46:07.065Z,17.30
2018-11-06T00:48:41.431Z,15.90
2018-11-06T00:51:15.742Z,14.67
2018-11-06T00:53:50.790Z,21.07
2018-11-06T00:56:25.035Z,14.80
2018-11-06T00:58:59.486Z,16.17
2018-11-06T01:01:33.694Z,16.23
2018-11-06T01:04:10.278Z,15.40
2018-11-06T01:06:44.554Z,16.50
2018-11-06T01:09:18.991Z,13.40
2018-11-06T01:11:53.270Z,12.90
2018-11-06T01:14:27.665Z,14.77
2018-11-06T01:17:01.917Z,17.07
2018-11-06T01:19:36.325Z,15.77
2018-11-06T01:22:10.648Z,13.47
2018-11-06T01:24:44.929Z,13.37
2018-11-06T01:27:19.254Z,11.43
2018-11-06T01:29:53.590Z,12.63
2018-11-06T01:32:27.966Z,14.90
2018-11-06T01:35:02.265Z,12.13
2018-11-06T01:37:36.598Z,12.83
2018-11-06T01:40:12.778Z,12.77
2018-11-06T01:42:47.485Z,13.47
2018-11-06T01:45:21.664Z,12.07
2018-11-06T01:47:55.954Z,10.47
2018-11-06T01:50:30.297Z,11.93
2018-11-06T01:53:04.702Z,12.17
2018-11-06T01:55:38.866Z,11.57
2018-11-06T01:58:13.017Z,14.30
2018-11-06T02:00:47.183Z,12.43
2018-11-06T02:03:21.578Z,13.43
2018-11-06T02:05:55.930Z,11.37
2018-11-06T02:08:30.314Z,15.43
2018-11-06T02:11:04.845Z,12.57
2018-11-06T02:13:38.985Z,11.83
2018-11-06T02:16:13.139Z,11.10
2018-11-06T02:18:47.497Z,11.97
2018-11-06T02:21:21.697Z,11.17
2018-11-06T02:23:55.962Z,11.20
2018-11-06T02:26:30.393Z,13.17
2018-11-06T02:29:04.881Z,10.97
2018-11-06T02:31:39.073Z,11.00
2018-11-06T02:34:13.274Z,11.40
2018-11-06T02:36:47.722Z,9.97
2018-11-06T02:39:21.841Z,10.43
2018-11-06T02:41:56.242Z,10.90
2018-11-06T02:44:30.590Z,11.07
2018-11-06T02:47:05.188Z,9.83
2018-11-06T02:49:39.545Z,11.80
2018-11-06T02:52:13.822Z,10.67
2018-11-06T02:54:48.073Z,11.47
2018-11-06T02:57:22.374Z,9.53
2018-11-06T02:59:56.551Z,9.80
2018-11-06T03:02:31.153Z,10.60
2018-11-06T03:05:06.106Z,9.60
2018-11-06T03:07:40.714Z,10.70
2018-11-06T03:10:15.520Z,11.23
2018-11-06T03:12:49.591Z,15.37
2018-11-06T03:15:24.013Z,12.67
2018-11-06T03:17:58.390Z,14.87
2018-11-06T03:20:32.609Z,14.20
2018-11-06T03:23:06.853Z,14.80
2018-11-06T03:25:41.068Z,16.10
2018-11-06T03:28:15.211Z,12.83
2018-11-06T03:30:49.658Z,16.13
2018-11-06T03:33:24.087Z,17.90
2018-11-06T03:35:58.534Z,12.03
2018-11-06T03:38:32.958Z,13.63
2018-11-06T03:41:07.550Z,15.33
2018-11-06T03:43:41.878Z,18.40
2018-11-06T03:46:16.259Z,19.20
2018-11-06T03:48:50.498Z,20.27
2018-11-06T03:51:24.625Z,17.23
2018-11-06T03:53:58.833Z,13.13
2018-11-06T03:56:33.041Z,16.20
2018-11-06T03:59:07.423Z,15.73
2018-11-06T04:01:41.850Z,17.17
2018-11-06T04:04:16.253Z,15.37
2018-11-06T04:06:50.453Z,16.87
2018-11-06T04:09:24.897Z,18.53
2018-11-06T04:11:59.069Z,23.53
2018-11-06T04:14:33.330Z,20.60
2018-11-06T04:17:07.721Z,16.93
2018-11-06T04:19:42.136Z,18.00
2018-11-06T04:22:16.402Z,14.70
2018-11-06T04:24:50.605Z,13.60
2018-11-06T04:27:24.942Z,13.97
2018-11-06T04:29:59.273Z,14.67
2018-11-06T04:32:33.599Z,12.33
2018-11-06T04:35:08.244Z,11.50
2018-11-06T04:37:42.750Z,13.73
2018-11-06T04:40:16.881Z,13.40
2018-11-06T04:42:51.173Z,11.17
2018-11-06T04:45:25.514Z,11.50
2018-11-06T04:47:59.741Z,12.27
2018-11-06T04:50:34.105Z,10.57
2018-11-06T04:53:08.433Z,10.47
2018-11-06T04:55:42.710Z,10.63
2018-11-06T04:58:16.940Z,9.63
2018-11-06T05:00:51.174Z,9.83
2018-11-06T05:03:25.574Z,10.20
2018-11-06T05:05:59.989Z,12.95
2018-11-06T05:08:34.197Z,9.60
2018-11-06T05:11:08.335Z,11.33
2018-11-06T05:13:42.808Z,9.77
2018-11-06T05:16:17.018Z,10.03
2018-11-06T05:18:51.277Z,10.13
2018-11-06T05:21:25.689Z,12.03
2018-11-06T05:23:59.881Z,14.70
2018-11-06T05:26:34.043Z,14.90
2018-11-06T05:29:08.657Z,13.97
2018-11-06T05:31:42.838Z,12.83
2018-11-06T05:34:17.075Z,12.43
2018-11-06T05:36:51.344Z,10.40
2018-11-06T05:39:25.710Z,10.97
2018-11-06T05:41:59.902Z,12.23
2018-11-06T05:44:34.086Z,11.90
2018-11-06T05:47:08.470Z,9.30
2018-11-06T05:49:42.994Z,12.20
2018-11-06T05:52:17.261Z,9.67
2018-11-06T05:54:51.422Z,9.73
2018-11-06T05:57:25.547Z,11.83
2018-11-06T05:59:59.698Z,11.17
2018-11-06T06:02:33.825Z,10.73
2018-11-06T06:05:08.145Z,11.97
2018-11-06T06:07:42.294Z,10.27
2018-11-06T06:10:16.718Z,9.17
2018-11-06T06:12:50.842Z,9.03
2018-11-06T06:15:25.207Z,10.60
2018-11-06T06:17:59.326Z,12.77
2018-11-06T06:20:33.529Z,11.07
2018-11-06T06:23:07.667Z,14.80
2018-11-06T06:25:42.096Z,12.30
2018-11-06T06:28:16.400Z,14.03
2018-11-06T06:30:50.530Z,12.03
2018-11-06T06:33:24.853Z,11.60
2018-11-06T06:35:58.986Z,11.77
2018-11-06T06:38:33.264Z,11.10
2018-11-06T06:41:07.638Z,11.90
2018-11-06T06:43:42.018Z,11.63
2018-11-06T06:46:16.400Z,11.43
2018-11-06T06:48:50.439Z,11.77
2018-11-06T06:51:24.877Z,12.00
2018-11-06T06:53:59.204Z,16.23
2018-11-06T06:56:33.306Z,13.20
2018-11-06T06:59:07.694Z,13.67
2018-11-06T07:01:42.043Z,15.23
2018-11-06T07:06:57.626Z,13.43
2018-11-06T07:09:31.826Z,13.10
2018-11-06T07:12:06.162Z,13.70
2018-11-06T07:14:40.425Z,12.73
2018-11-06T07:17:14.849Z,16.10
2018-11-06T07:19:49.232Z,13.17
2018-11-06T07:22:23.377Z,12.53
2018-11-06T07:24:58.246Z,15.20
2018-11-06T07:27:32.546Z,13.00
2018-11-06T07:30:09.278Z,12.40
2018-11-06T07:32:43.951Z,17.67
2018-11-06T07:35:18.881Z,15.97
2018-11-06T07:37:53.143Z,16.47
2018-11-06T07:40:27.656Z,15.23
2018-11-06T07:43:01.767Z,17.63
2018-11-06T07:45:36.119Z,16.10
2018-11-06T07:48:10.269Z,15.80
2018-11-06T07:50:44.507Z,16.20
2018-11-06T07:53:18.701Z,14.57
2018-11-06T07:55:52.944Z,14.47
2018-11-06T07:58:27.205Z,16.47
2018-11-06T08:01:01.566Z,15.83
2018-11-06T08:03:35.768Z,20.17
2018-11-06T08:06:10.128Z,18.77
2018-11-06T08:08:44.321Z,18.80
2018-11-06T08:11:18.534Z,16.80
2018-11-06T08:13:52.926Z,19.37
2018-11-06T08:16:27.386Z,21.40
2018-11-06T08:19:01.497Z,27.87
2018-11-06T08:21:35.649Z,20.73
2018-11-06T08:24:10.070Z,25.37
2018-11-06T08:26:44.226Z,24.50
2018-11-06T08:29:18.606Z,23.47
2018-11-06T08:31:53.394Z,26.07
2018-11-06T08:34:27.266Z,35.80
2018-11-06T08:37:01.580Z,37.43
2018-11-06T08:39:35.993Z,258.67
2018-11-06T08:42:10.379Z,221.73
2018-11-06T08:44:44.693Z,444.30
2018-11-06T08:47:18.858Z,83.83
2018-11-06T08:49:53.145Z,42.83
2018-11-06T08:52:27.514Z,29.70
2018-11-06T08:55:01.666Z,131.63
2018-11-06T08:57:35.961Z,70.60
2018-11-06T09:00:13.528Z,41.47
2018-11-06T09:02:48.784Z,41.03
2018-11-06T09:05:23.105Z,35.47
2018-11-06T09:07:57.417Z,38.20
2018-11-06T09:10:31.687Z,33.97
2018-11-06T09:13:05.826Z,37.13
2018-11-06T09:15:40.074Z,37.83
2018-11-06T09:18:16.742Z,42.03
2018-11-06T09:20:50.934Z,36.17
2018-11-06T09:23:25.233Z,31.97
2018-11-06T09:25:59.693Z,34.80
2018-11-06T09:28:33.994Z,33.57
2018-11-06T09:31:08.517Z,37.70
2018-11-06T09:33:42.687Z,37.43
2018-11-06T09:36:16.989Z,36.40
2018-11-06T09:38:51.415Z,42.17
2018-11-06T09:41:25.748Z,72.43
2018-11-06T09:43:59.962Z,68.83
2018-11-06T09:46:34.537Z,42.30
2018-11-06T09:49:08.702Z,41.77
2018-11-06T09:51:42.943Z,35.43
2018-11-06T09:54:17.330Z,255.90
2018-11-06T09:56:51.710Z,67.50
2018-11-06T09:59:25.998Z,57.27
2018-11-06T10:02:00.309Z,38.63
2018-11-06T10:04:34.702Z,27.97
2018-11-06T10:07:09.746Z,29.03
2018-11-06T10:09:43.694Z,27.50
2018-11-06T10:12:17.973Z,31.20
2018-11-06T10:14:52.196Z,33.00
2018-11-06T10:17:26.562Z,33.30
2018-11-06T10:20:00.822Z,28.57
2018-11-06T10:22:35.007Z,29.23
2018-11-06T10:25:09.290Z,27.63
2018-11-06T10:27:43.541Z,35.20
2018-11-06T10:30:19.171Z,1106.23
2018-11-06T10:32:53.487Z,1946.87
2018-11-06T10:35:27.705Z,858.90
2018-11-06T10:38:02.114Z,133.20
2018-11-06T10:40:36.336Z,43.20
2018-11-06T10:43:10.639Z,33.30
2018-11-06T10:45:44.869Z,35.03
2018-11-06T10:48:19.142Z,31.67
2018-11-06T10:50:53.442Z,31.07
2018-11-06T10:53:27.710Z,30.63
2018-11-06T10:56:01.982Z,34.43
2018-11-06T10:58:36.269Z,26.20
2018-11-06T11:01:15.998Z,28.57
2018-11-06T11:03:55.890Z,28.17
2018-11-06T11:06:30.274Z,30.07
2018-11-06T11:09:06.673Z,26.83
2018-11-06T11:11:40.791Z,25.53
2018-11-06T11:14:15.322Z,25.13
2018-11-06T11:16:49.554Z,28.77
2018-11-06T11:19:23.789Z,23.60
2018-11-06T11:21:58.225Z,25.13
2018-11-06T11:24:32.590Z,27.97
2018-11-06T11:27:07.058Z,25.23
2018-11-06T11:29:41.258Z,25.53
2018-11-06T11:32:15.434Z,24.77
2018-11-06T11:34:49.694Z,23.87
2018-11-06T11:37:24.033Z,24.27
2018-11-06T11:39:58.298Z,23.10
2018-11-06T11:42:32.710Z,21.87
2018-11-06T11:45:08.378Z,22.30
2018-11-06T11:47:42.511Z,21.00
2018-11-06T11:50:16.958Z,25.80
2018-11-06T11:52:51.178Z,21.97
2018-11-06T11:55:25.419Z,19.90
2018-11-06T11:57:59.850Z,20.33
2018-11-06T12:00:37.704Z,18.07
2018-11-06T12:03:12.045Z,22.33
2018-11-06T12:05:46.346Z,20.90
2018-11-06T12:08:20.631Z,20.80
2018-11-06T12:10:55.061Z,26.57
2018-11-06T12:13:29.417Z,37.10
2018-11-06T12:16:03.758Z,34.07
2018-11-06T12:18:38.908Z,68.83
2018-11-06T12:21:13.219Z,76.90
2018-11-06T12:23:47.573Z,28.67
2018-11-06T12:26:21.810Z,42.50
2018-11-06T12:28:56.169Z,55.60
2018-11-06T12:31:30.447Z,76.93
2018-11-06T12:34:05.325Z,72.67
2018-11-06T12:36:39.680Z,45.63
2018-11-06T12:39:14.034Z,84.57
2018-11-06T12:41:48.382Z,76.87
2018-11-06T12:44:22.762Z,68.67
2018-11-06T12:46:57.105Z,33.73
2018-11-06T12:49:31.538Z,88.37
2018-11-06T12:52:05.920Z,104.77
2018-11-06T12:54:40.251Z,153.43
2018-11-06T12:57:14.525Z,61.93
2018-11-06T12:59:48.790Z,58.80
2018-11-06T13:02:23.090Z,31.70
2018-11-06T13:04:57.345Z,26.73
2018-11-06T13:07:31.470Z,56.70
2018-11-06T13:10:05.911Z,130.60
2018-11-06T13:12:40.541Z,77.63
2018-11-06T13:15:15.641Z,58.50
2018-11-06T13:17:49.261Z,31.03
2018-11-06T13:20:23.439Z,22.73
2018-11-06T13:22:57.601Z,25.20
2018-11-06T13:25:31.785Z,22.23
2018-11-06T13:28:06.046Z,22.00
2018-11-06T13:30:40.442Z,21.13
2018-11-06T13:33:14.838Z,22.83
2018-11-06T13:35:49.090Z,28.20
2018-11-06T13:38:23.297Z,22.50
2018-11-06T13:40:57.601Z,33.67
2018-11-06T13:43:32.088Z,16.40
2018-11-06T13:46:06.261Z,18.33
2018-11-06T13:48:40.642Z,18.13
2018-11-06T13:51:15.242Z,17.20
2018-11-06T13:53:49.419Z,17.30
2018-11-06T13:56:23.626Z,1100.03
2018-11-06T13:58:57.958Z,1999.90
2018-11-06T14:01:32.370Z,1133.20
2018-11-06T14:04:06.662Z,333.03
2018-11-06T14:06:40.951Z,1122.40
2018-11-06T14:09:15.122Z,145.77
2018-11-06T14:11:49.436Z,63.10
2018-11-06T14:14:23.705Z,28.00
2018-11-06T14:16:57.958Z,37.40
2018-11-06T14:19:32.118Z,23.77
2018-11-06T14:22:06.736Z,19.10
2018-11-06T14:24:40.891Z,16.87
2018-11-06T14:27:15.207Z,17.53
2018-11-06T14:29:49.530Z,19.13
2018-11-06T14:32:23.918Z,17.90
2018-11-06T14:34:58.209Z,20.83
2018-11-06T14:37:32.457Z,18.83
2018-11-06T14:40:07.922Z,21.80
2018-11-06T14:42:42.839Z,18.90
2018-11-06T14:45:18.351Z,18.23
2018-11-06T14:47:52.552Z,22.03
2018-11-06T14:50:26.822Z,20.33
2018-11-06T14:53:01.202Z,20.07
2018-11-06T14:55:35.470Z,21.97
2018-11-06T14:58:09.927Z,23.63
2018-11-06T15:00:44.266Z,19.47
2018-11-06T15:03:18.502Z,20.00
2018-11-06T15:05:52.944Z,23.73
2018-11-06T15:08:27.228Z,24.80
2018-11-06T15:11:01.426Z,17.30
2018-11-06T15:13:36.197Z,20.60
2018-11-06T15:16:10.353Z,20.20
2018-11-06T15:18:44.614Z,20.13
2018-11-06T15:21:19.058Z,19.00
2018-11-06T15:23:53.347Z,22.97
2018-11-06T15:26:27.679Z,21.20
2018-11-06T15:29:01.934Z,20.13
2018-11-06T15:31:36.295Z,22.47
2018-11-06T15:34:10.587Z,22.10
2018-11-06T15:36:45.066Z,22.23
2018-11-06T15:39:19.433Z,21.87
2018-11-06T15:41:53.941Z,23.37
2018-11-06T15:44:28.066Z,22.20
2018-11-06T15:47:02.434Z,20.30
2018-11-06T15:49:36.776Z,20.20
2018-11-06T15:52:11.021Z,20.67
2018-11-06T15:54:45.398Z,23.37
2018-11-06T15:57:19.737Z,25.57
2018-11-06T15:59:53.875Z,23.97
2018-11-06T16:02:28.244Z,23.37
2018-11-06T16:05:02.574Z,26.80
2018-11-06T16:07:37.154Z,22.27
2018-11-06T16:10:15.043Z,21.87
2018-11-06T16:12:49.218Z,21.53
2018-11-06T16:15:23.577Z,24.87
2018-11-06T16:17:57.714Z,20.33
2018-11-06T16:20:32.054Z,29.03
2018-11-06T16:23:06.333Z,22.83
2018-11-06T16:25:40.606Z,24.47
2018-11-06T16:28:15.018Z,25.37
2018-11-06T16:30:49.437Z,25.57
2018-11-06T16:33:23.639Z,26.83
2018-11-06T16:35:57.798Z,24.90
2018-11-06T16:38:32.194Z,26.43
2018-11-06T16:41:06.850Z,20.43
2018-11-06T16:43:41.054Z,24.87
2018-11-06T16:46:15.366Z,23.77
2018-11-06T16:48:49.750Z,25.07
2018-11-06T16:51:24.058Z,26.93
2018-11-06T16:53:58.417Z,22.07
2018-11-06T16:56:32.634Z,25.10
2018-11-06T16:59:06.954Z,22.20
2018-11-06T17:01:41.442Z,22.20
2018-11-06T17:04:15.803Z,23.90
2018-11-06T17:06:51.057Z,20.67
2018-11-06T17:09:25.409Z,20.47
2018-11-06T17:11:59.865Z,21.97
2018-11-06T17:14:35.170Z,20.47
2018-11-06T17:17:09.387Z,22.00
2018-11-06T17:19:43.614Z,21.40
2018-11-06T17:22:17.815Z,23.27
2018-11-06T17:24:52.053Z,25.97
2018-11-06T17:27:26.374Z,25.43
2018-11-06T17:30:00.657Z,21.97
2018-11-06T17:32:35.321Z,22.47
2018-11-06T17:35:11.233Z,24.63
2018-11-06T17:37:45.642Z,25.03
2018-11-06T17:40:20.788Z,24.13
2018-11-06T17:42:55.093Z,20.63
2018-11-06T17:45:29.317Z,25.13
2018-11-06T17:48:03.583Z,27.67
2018-11-06T17:50:37.921Z,23.67
2018-11-06T17:53:12.290Z,24.53
2018-11-06T17:55:46.561Z,26.90
2018-11-06T17:58:20.939Z,24.33
2018-11-06T18:00:55.389Z,28.47
2018-11-06T18:03:30.382Z,28.07
2018-11-06T18:19:46.050Z,21.80
2018-11-06T18:22:20.474Z,25.43
2018-11-06T18:24:54.774Z,24.43
2018-11-06T18:27:29.238Z,23.37
2018-11-06T18:30:03.861Z,20.47
2018-11-06T18:32:38.068Z,22.37
2018-11-06T18:35:13.267Z,22.53
2018-11-06T18:37:47.505Z,24.37
2018-11-06T18:40:21.770Z,27.13
2018-11-06T18:42:56.125Z,25.03
2018-11-06T18:45:30.387Z,29.90
2018-11-06T18:48:05.016Z,24.03
2018-11-06T18:50:39.333Z,24.57
2018-11-06T18:53:13.590Z,23.77
2018-11-06T18:55:48.014Z,23.73
2018-11-06T18:58:22.444Z,24.33
2018-11-06T19:00:56.805Z,27.07
2018-11-06T19:03:31.219Z,22.93
2018-11-06T19:06:05.674Z,23.73
2018-11-06T19:08:39.872Z,29.60
2018-11-06T19:11:14.270Z,21.30
2018-11-06T19:13:48.646Z,29.20
2018-11-06T19:16:22.935Z,27.63
2018-11-06T19:18:57.310Z,26.37
2018-11-06T19:21:31.606Z,24.60
2018-11-06T19:24:05.843Z,27.00
2018-11-06T19:26:40.094Z,21.10
2018-11-06T19:29:14.530Z,27.17
2018-11-06T19:31:48.779Z,24.03
2018-11-06T19:34:23.053Z,23.33
2018-11-06T19:36:57.302Z,29.50
2018-11-06T19:39:31.631Z,26.07
2018-11-06T19:42:05.911Z,28.00
2018-11-06T19:44:40.321Z,28.20
2018-11-06T19:47:14.613Z,29.33
2018-11-06T19:49:48.970Z,25.83
2018-11-06T19:52:23.184Z,24.73
2018-11-06T19:54:57.590Z,24.80
2018-11-06T19:57:31.891Z,30.27
2018-11-06T20:00:10.587Z,29.03
2018-11-06T20:02:46.162Z,26.03
2018-11-06T20:05:23.542Z,24.47
2018-11-06T20:07:57.786Z,27.67
2018-11-06T20:10:32.107Z,24.87
2018-11-06T20:13:06.508Z,24.87
2018-11-06T20:15:40.867Z,24.07
2018-11-06T20:18:15.102Z,21.47
2018-11-06T20:20:49.847Z,21.47
2018-11-06T20:23:24.341Z,26.10
2018-11-06T20:26:19.146Z,24.80
2018-11-06T20:28:53.346Z,25.70
2018-11-06T20:31:27.619Z,27.50
2018-11-06T20:34:02.158Z,25.33
2018-11-06T20:36:36.574Z,25.63
2018-11-06T20:39:11.291Z,28.13
2018-11-06T20:41:45.569Z,24.60
2018-11-06T20:44:19.877Z,24.00
2018-11-06T20:46:54.282Z,27.07
2018-11-06T20:49:28.731Z,25.53
2018-11-06T20:52:03.082Z,24.23
2018-11-06T20:54:37.373Z,25.43
2018-11-06T20:57:11.582Z,28.13
2018-11-06T20:59:45.908Z,23.13
2018-11-06T21:02:20.529Z,22.53
2018-11-06T21:04:54.715Z,26.63
2018-11-06T21:07:29.021Z,27.27
2018-11-06T21:10:03.317Z,26.67
2018-11-06T21:12:37.618Z,27.70
2018-11-06T21:15:12.254Z,27.37
2018-11-06T21:17:46.505Z,30.50
2018-11-06T21:20:20.818Z,30.40
2018-11-06T21:22:54.973Z,26.17
2018-11-06T21:25:29.424Z,24.53
2018-11-06T21:28:03.710Z,23.03
2018-11-06T21:30:37.985Z,26.50
2018-11-06T21:33:12.390Z,25.63
2018-11-06T21:35:46.790Z,24.63
2018-11-06T21:38:21.124Z,28.83
2018-11-06T21:40:55.406Z,25.07
2018-11-06T21:43:29.601Z,26.03
2018-11-06T21:46:04.009Z,22.23
2018-11-06T21:48:38.290Z,26.70
2018-11-06T21:51:12.514Z,26.40
2018-11-06T21:53:46.817Z,26.30
2018-11-06T21:56:21.149Z,22.20
2018-11-06T21:58:55.577Z,26.57
2018-11-06T22:01:30.006Z,24.10
2018-11-06T22:04:04.476Z,23.50
2018-11-06T22:06:38.790Z,25.90
2018-11-06T22:09:12.993Z,29.03
2018-11-06T22:11:47.302Z,27.40
2018-11-06T22:14:21.699Z,26.97
2018-11-06T22:16:56.090Z,26.93
2018-11-06T22:19:30.286Z,24.07
2018-11-06T22:22:05.155Z,26.37
2018-11-06T22:24:39.359Z,22.87
2018-11-06T22:27:13.658Z,20.77
2018-11-06T22:29:48.106Z,20.10
2018-11-06T22:32:22.422Z,23.83
2018-11-06T22:34:57.198Z,19.93
2018-11-06T22:37:31.432Z,20.50
2018-11-06T22:40:06.486Z,21.93
2018-11-06T22:42:40.983Z,20.90
2018-11-06T22:45:16.414Z,22.97
2018-11-06T22:47:50.782Z,20.07
2018-11-06T22:50:24.997Z,22.17
2018-11-06T22:52:59.403Z,19.07
2018-11-06T22:55:33.757Z,19.07
2018-11-06T22:58:08.088Z,21.03
2018-11-06T23:00:47.845Z,21.97
2018-11-06T23:03:22.246Z,19.13
2018-11-06T23:05:56.594Z,18.43
2018-11-06T23:08:30.830Z,19.40
2018-11-06T23:11:05.482Z,22.17
2018-11-06T23:13:39.614Z,22.30
2018-11-06T23:16:13.954Z,20.23
2018-11-06T23:18:48.349Z,19.77
2018-11-06T23:21:22.618Z,20.93
2018-11-06T23:23:56.930Z,19.07
2018-11-06T23:26:31.303Z,25.00
2018-11-06T23:29:05.633Z,20.43
2018-11-06T23:31:39.903Z,15.73
2018-11-06T23:34:14.014Z,18.33
2018-11-06T23:36:48.314Z,18.50
2018-11-06T23:39:22.674Z,19.20
2018-11-06T23:41:56.959Z,18.27
2018-11-06T23:44:31.253Z,19.57
2018-11-06T23:47:05.553Z,18.17
2018-11-06T23:49:39.737Z,18.30
2018-11-06T23:52:13.998Z,19.20
2018-11-06T23:54:48.421Z,23.83
2018-11-06T23:57:22.584Z,26.97
2018-11-06T23:59:56.721Z,19.50
